Reese, Ohio
Current Conditions -  °F | °C
As of 2:15 AM on Sunday 23 Nov 2014 (Local Time) from KLCK Reporting Station
Overcast Overcast  
Wind Chill: 43°   Ceiling: 6500
Heat Index: 46°   Visibility: 10mi
Dew Point: 34°   Wind: 7mph
Humidity: 63%   Direction: 170°S
Pressure: 30.05"   Gusts: NA
Location:  39.8938°N, 82.9624°W
Report Text: KLCK 230715Z AUTO 17006KT 10SM BKN065 OVC070 08/01 A3005 RMK AO2 T00790013
Loading
Personal Weather Stations






























Interactive Weather Map New forecast layout! Learn more

10-Day Weather Forecast

Advertisements
Track Severe Weather on mobile